createdAt,value
2019-02-23T00:01:24.685Z,22.90
2019-02-23T00:07:00.122Z,23.70
2019-02-23T00:09:46.685Z,24.63
2019-02-23T00:12:26.790Z,23.77
2019-02-23T00:15:09.525Z,24.50
2019-02-23T00:17:55.747Z,25.17
2019-02-23T00:20:42.765Z,24.37
2019-02-23T00:23:26.433Z,23.77
2019-02-23T00:26:26.092Z,26.23
2019-02-23T00:29:10.625Z,25.57
2019-02-23T00:32:14.610Z,27.37
2019-02-23T00:35:08.066Z,26.23
2019-02-23T00:37:45.085Z,24.30
2019-02-23T00:40:27.126Z,24.17
2019-02-23T00:43:00.088Z,25.83
2019-02-23T00:46:11.526Z,25.57
2019-02-23T00:49:15.442Z,26.77
2019-02-23T00:52:15.352Z,25.80
2019-02-23T00:55:13.297Z,25.47
2019-02-23T00:57:48.069Z,28.53
2019-02-23T01:00:41.855Z,25.00
2019-02-23T01:03:23.948Z,25.63
2019-02-23T01:06:06.306Z,26.07
2019-02-23T01:08:42.392Z,26.73
2019-02-23T01:11:24.880Z,30.40
2019-02-23T01:14:03.894Z,29.33
2019-02-23T01:16:35.566Z,26.40
2019-02-23T01:19:13.782Z,28.90
2019-02-23T01:21:54.734Z,29.23
2019-02-23T01:24:34.262Z,27.53
2019-02-23T01:27:13.149Z,31.77
2019-02-23T01:29:55.868Z,28.20
2019-02-23T01:32:32.871Z,29.57
2019-02-23T01:35:10.995Z,28.50
2019-02-23T01:37:54.630Z,27.83
2019-02-23T01:40:52.540Z,27.67
2019-02-23T01:43:26.754Z,31.17
2019-02-23T01:46:04.759Z,26.20
2019-02-23T01:48:39.249Z,28.40
2019-02-23T01:51:29.881Z,28.47
2019-02-23T01:54:04.203Z,27.03
2019-02-23T01:56:45.379Z,32.48
2019-02-23T01:59:25.091Z,28.63
2019-02-23T02:02:02.083Z,26.47
2019-02-23T02:04:33.347Z,30.07
2019-02-23T02:07:16.419Z,28.63
2019-02-23T02:09:54.073Z,30.30
2019-02-23T02:12:29.043Z,28.93
2019-02-23T02:15:06.653Z,26.50
2019-02-23T02:17:44.687Z,27.43
2019-02-23T02:20:22.541Z,26.17
2019-02-23T02:23:00.398Z,26.27
2019-02-23T02:25:36.332Z,27.77
2019-02-23T02:28:11.498Z,27.80
2019-02-23T02:30:49.785Z,28.83
2019-02-23T02:33:21.809Z,27.50
2019-02-23T02:36:05.838Z,25.83
2019-02-23T02:39:08.811Z,26.67
2019-02-23T02:41:45.147Z,29.90
2019-02-23T02:44:26.060Z,29.53
2019-02-23T02:47:01.395Z,26.57
2019-02-23T02:49:36.648Z,25.40
2019-02-23T02:52:09.304Z,26.73
2019-02-23T02:54:48.174Z,26.63
2019-02-23T02:57:27.774Z,25.43
2019-02-23T03:00:10.654Z,25.73
2019-02-23T03:02:55.684Z,26.23
2019-02-23T03:05:31.532Z,25.80
2019-02-23T03:08:03.175Z,23.60
2019-02-23T03:10:36.056Z,26.23
2019-02-23T03:13:15.195Z,25.47
2019-02-23T03:15:54.732Z,26.07
2019-02-23T03:18:29.206Z,25.77
2019-02-23T03:21:07.947Z,25.80
2019-02-23T03:23:39.085Z,25.43
2019-02-23T03:26:12.617Z,25.55
2019-02-23T03:28:53.028Z,26.87
2019-02-23T03:31:25.990Z,24.77
2019-02-23T03:34:03.906Z,27.37
2019-02-23T03:36:38.022Z,25.03
2019-02-23T03:39:14.723Z,27.90
2019-02-23T03:41:50.130Z,25.00
2019-02-23T03:44:22.954Z,25.10
2019-02-23T03:46:59.623Z,27.23
2019-02-23T03:49:36.322Z,24.27
2019-02-23T03:52:13.462Z,25.90
2019-02-23T03:54:45.606Z,25.50
2019-02-23T03:57:20.162Z,24.97
2019-02-23T04:00:03.677Z,27.07
2019-02-23T04:02:34.517Z,25.27
2019-02-23T04:05:06.716Z,24.07
2019-02-23T04:07:37.618Z,25.27
2019-02-23T04:10:13.681Z,26.53
2019-02-23T04:12:45.384Z,26.97
2019-02-23T04:15:21.323Z,27.07
2019-02-23T04:18:00.530Z,25.80
2019-02-23T04:20:31.435Z,25.70
2019-02-23T04:23:07.011Z,23.97
2019-02-23T04:25:40.625Z,27.53
2019-02-23T04:28:15.735Z,27.63
2019-02-23T04:30:50.330Z,26.70
2019-02-23T04:33:22.978Z,29.83
2019-02-23T04:35:56.083Z,26.20
2019-02-23T04:38:32.669Z,27.87
2019-02-23T04:41:05.355Z,28.50
2019-02-23T04:43:45.383Z,27.07
2019-02-23T04:46:16.824Z,27.67
2019-02-23T04:48:47.980Z,26.83
2019-02-23T04:51:21.769Z,29.03
2019-02-23T04:53:55.378Z,26.30
2019-02-23T04:56:34.659Z,26.60
2019-02-23T04:59:07.953Z,30.43
2019-02-23T05:01:57.094Z,26.90
2019-02-23T05:04:30.107Z,24.50
2019-02-23T05:07:49.790Z,26.83
2019-02-23T05:10:41.831Z,23.70
2019-02-23T05:13:28.796Z,23.73
2019-02-23T05:16:03.486Z,24.57
2019-02-23T05:18:43.581Z,23.17
2019-02-23T05:21:26.324Z,22.83
2019-02-23T05:24:02.411Z,22.57
2019-02-23T05:27:05.065Z,23.50
2019-02-23T05:29:44.658Z,21.30
2019-02-23T05:32:37.816Z,23.13
2019-02-23T05:35:34.426Z,24.07
2019-02-23T05:38:27.601Z,24.37
2019-02-23T05:41:05.954Z,23.23
2019-02-23T05:43:59.572Z,25.27
2019-02-23T05:46:33.362Z,22.33
2019-02-23T05:49:24.764Z,23.60
2019-02-23T05:52:04.000Z,25.33
2019-02-23T05:54:55.076Z,26.57
2019-02-23T05:57:37.111Z,24.43
2019-02-23T06:00:18.905Z,24.03
2019-02-23T06:03:01.109Z,21.60
2019-02-23T06:06:00.931Z,22.57
2019-02-23T06:08:45.041Z,26.10
2019-02-23T06:11:24.203Z,26.13
2019-02-23T06:14:20.438Z,24.67
2019-02-23T06:17:18.958Z,28.52
2019-02-23T06:20:38.510Z,25.50
2019-02-23T06:24:05.480Z,23.50
2019-02-23T06:30:00.213Z,21.80
2019-02-23T06:32:59.230Z,21.60
2019-02-23T06:35:51.267Z,21.00
2019-02-23T06:38:32.891Z,21.13
2019-02-23T06:41:14.665Z,20.97
2019-02-23T06:44:27.798Z,20.80
2019-02-23T06:47:09.420Z,20.40
2019-02-23T06:49:55.540Z,20.50
2019-02-23T06:52:35.595Z,19.30
2019-02-23T06:55:33.095Z,19.87
2019-02-23T06:58:18.375Z,20.07
2019-02-23T07:00:57.143Z,22.37
2019-02-23T07:04:24.832Z,21.60
2019-02-23T07:07:26.494Z,21.27
2019-02-23T07:10:33.983Z,20.50
2019-02-23T07:13:19.514Z,22.57
2019-02-23T07:16:17.325Z,21.40
2019-02-23T07:18:49.052Z,19.60
2019-02-23T07:21:31.335Z,20.03
2019-02-23T07:24:05.141Z,20.40
2019-02-23T07:30:01.768Z,19.50
2019-02-23T07:33:12.786Z,18.97
2019-02-23T07:54:58.287Z,17.63
2019-02-23T07:57:53.984Z,19.17
2019-02-23T08:01:41.382Z,18.70
2019-02-23T08:04:46.155Z,17.57
2019-02-23T08:08:16.571Z,17.67
2019-02-23T08:10:53.585Z,15.67
2019-02-23T08:13:40.817Z,15.37
2019-02-23T08:16:49.124Z,14.83
2019-02-23T08:19:31.421Z,14.80
2019-02-23T08:22:15.916Z,15.90
2019-02-23T08:24:50.662Z,15.77
2019-02-23T08:27:38.800Z,14.90
2019-02-23T08:30:38.638Z,14.63
2019-02-23T08:33:33.060Z,13.57
2019-02-23T08:36:32.575Z,14.90
2019-02-23T08:39:43.165Z,13.23
2019-02-23T08:42:30.146Z,13.33
2019-02-23T08:45:11.954Z,13.87
2019-02-23T08:47:50.849Z,14.60
2019-02-23T08:54:26.295Z,13.73
2019-02-23T08:57:21.975Z,13.90
2019-02-23T09:00:24.573Z,12.70
2019-02-23T09:03:23.006Z,14.03
2019-02-23T09:05:59.627Z,13.50
2019-02-23T09:08:49.535Z,13.40
2019-02-23T09:11:49.607Z,12.97
2019-02-23T09:15:10.791Z,12.03
2019-02-23T09:18:00.572Z,12.20
2019-02-23T09:21:12.198Z,13.23
2019-02-23T09:24:13.804Z,12.70
2019-02-23T09:27:18.585Z,11.77
2019-02-23T09:30:17.474Z,13.70
2019-02-23T09:36:58.462Z,13.10
2019-02-23T09:40:25.565Z,12.60
2019-02-23T09:46:43.566Z,13.40
2019-02-23T09:49:34.147Z,13.33
2019-02-23T09:52:57.451Z,11.40
2019-02-23T09:56:10.758Z,13.10
2019-02-23T09:59:25.528Z,12.27
2019-02-23T10:02:26.799Z,12.37
2019-02-23T10:05:41.366Z,15.75
2019-02-23T10:08:52.352Z,13.43
2019-02-23T10:11:59.858Z,12.47
2019-02-23T10:14:39.543Z,12.50
2019-02-23T10:17:24.257Z,13.23
2019-02-23T10:20:27.195Z,14.30
2019-02-23T10:23:36.383Z,12.37
2019-02-23T10:26:13.135Z,12.10
2019-02-23T10:29:02.215Z,11.63
2019-02-23T10:31:56.506Z,12.57
2019-02-23T10:35:02.357Z,14.20
2019-02-23T10:38:31.395Z,19.87
2019-02-23T10:41:19.104Z,16.90
2019-02-23T10:44:07.727Z,13.90
2019-02-23T10:46:48.349Z,12.07
2019-02-23T10:50:04.920Z,11.80
2019-02-23T10:53:33.092Z,11.77
2019-02-23T10:56:40.991Z,10.63
2019-02-23T11:00:05.370Z,11.95
2019-02-23T11:03:12.015Z,10.70
2019-02-23T11:06:18.646Z,10.48
2019-02-23T11:09:33.942Z,11.00
2019-02-23T11:12:55.294Z,10.03
2019-02-23T11:16:13.128Z,9.10
2019-02-23T11:19:33.901Z,10.63
2019-02-23T11:22:37.352Z,11.40
2019-02-23T11:25:36.170Z,10.73
2019-02-23T11:28:25.248Z,10.70
2019-02-23T11:31:07.374Z,11.45
2019-02-23T11:33:55.181Z,12.40
2019-02-23T11:36:51.354Z,9.83
2019-02-23T11:42:34.663Z,10.90
2019-02-23T11:45:31.208Z,10.40
2019-02-23T11:48:49.806Z,11.07
2019-02-23T11:51:36.292Z,10.07
2019-02-23T11:54:25.627Z,10.27
2019-02-23T11:57:47.867Z,8.83
2019-02-23T13:05:01.375Z,5.57
2019-02-23T13:08:13.204Z,6.00
2019-02-23T13:11:29.026Z,5.87
2019-02-23T13:18:25.357Z,6.70
2019-02-23T13:22:03.748Z,8.43
2019-02-23T13:25:17.116Z,6.33
2019-02-23T13:28:34.819Z,6.80
2019-02-23T13:32:14.574Z,5.70
2019-02-23T13:36:00.106Z,5.87
2019-02-23T13:39:55.724Z,6.80
2019-02-23T13:42:50.071Z,5.73
2019-02-23T13:45:55.855Z,5.40
2019-02-23T13:49:50.005Z,6.23
2019-02-23T13:52:54.819Z,7.10
2019-02-23T13:56:34.325Z,5.77
2019-02-23T14:00:16.710Z,6.80
2019-02-23T14:03:53.812Z,7.43
2019-02-23T14:07:42.936Z,6.53
2019-02-23T14:11:03.239Z,5.27
2019-02-23T14:14:10.220Z,5.67
2019-02-23T14:17:30.910Z,5.77
2019-02-23T14:24:53.787Z,6.80
2019-02-23T14:28:33.036Z,7.47
2019-02-23T14:32:23.481Z,6.00
2019-02-23T14:35:50.746Z,8.60
2019-02-23T14:39:21.629Z,7.20
2019-02-23T14:42:45.775Z,5.78
2019-02-23T14:45:56.986Z,5.43
2019-02-23T14:49:09.666Z,5.73
2019-02-23T14:52:31.047Z,6.57
2019-02-23T14:56:24.024Z,5.77
2019-02-23T14:59:52.710Z,6.07
2019-02-23T15:03:45.584Z,6.27
2019-02-23T15:10:35.046Z,6.30
2019-02-23T15:14:06.403Z,5.80
2019-02-23T15:17:21.297Z,7.20
2019-02-23T15:20:54.330Z,6.23
2019-02-23T15:26:46.249Z,6.30
2019-02-23T15:31:18.872Z,5.63
2019-02-23T15:31:46.556Z,5.90
2019-02-23T15:39:33.134Z,8.47
2019-02-23T15:43:00.754Z,8.00
2019-02-23T15:46:25.498Z,6.63
2019-02-23T16:00:01.726Z,7.00
2019-02-23T16:03:31.987Z,6.13
2019-02-23T16:10:03.223Z,7.47
2019-02-23T16:12:42.303Z,6.50
2019-02-23T16:15:53.573Z,6.30
2019-02-23T16:18:53.744Z,6.27
2019-02-23T16:25:23.278Z,6.80
2019-02-23T16:25:41.359Z,6.13
2019-02-23T16:35:02.497Z,6.73
2019-02-23T16:38:16.419Z,5.80
2019-02-23T16:41:57.987Z,5.30
2019-02-23T16:45:33.528Z,6.60
2019-02-23T16:49:17.827Z,6.93
2019-02-23T16:52:40.885Z,5.33
2019-02-23T16:56:01.885Z,5.97
2019-02-23T17:33:20.741Z,7.57
2019-02-23T21:52:14.597Z,10.13
2019-02-23T21:55:59.994Z,11.00
2019-02-23T21:59:07.819Z,9.57
2019-02-23T22:03:19.295Z,9.90
2019-02-23T22:14:04.435Z,9.55
2019-02-23T22:18:34.745Z,11.50
2019-02-23T22:37:53.640Z,8.73
2019-02-23T22:45:51.871Z,10.03
2019-02-23T22:57:39.987Z,8.20
2019-02-23T23:04:24.242Z,9.03
2019-02-23T23:15:39.823Z,9.90
2019-02-23T23:18:56.736Z,9.80
2019-02-23T23:25:34.925Z,9.87
2019-02-23T23:29:37.388Z,10.20
2019-02-23T23:32:43.582Z,10.00
2019-02-23T23:36:02.057Z,8.97
2019-02-23T23:42:40.859Z,10.27
2019-02-23T23:46:15.722Z,9.80
2019-02-23T23:53:08.876Z,8.83
2019-02-23T23:55:44.314Z,9.70
